Terminal Aerodrome Forecast
Issued by NWS

Home | Current Version | Previous Version | Text Only | Print | Product List | Glossary On
Versions: 1 2 3 4 5 6 7 8 9 10 11 12 13 14 15 16 17 18 19
207
FTUS41 KBTV 100537
TAFMPV
TAF
KMPV 100537Z 1006/1106 VRB03KT P6SM VCSH OVC035
      TEMPO 1006/1010 OVC030
     FM101500 18004KT P6SM VCSH OVC030
     FM102000 24004KT 2SM -SN BR OVC018
     FM110400 29004KT 3SM -SN BR OVC015=

USA.gov is the U.S. government's official web portal to all federal, state and local government web resources and services.